createdAt,value
2019-02-16T00:00:05.730Z,12.82
2019-02-16T00:02:34.342Z,11.45
2019-02-16T00:05:03.113Z,9.33
2019-02-16T00:07:31.761Z,9.45
2019-02-16T00:10:00.352Z,9.18
2019-02-16T00:12:28.990Z,9.95
2019-02-16T00:14:57.622Z,14.00
2019-02-16T00:17:26.226Z,9.25
2019-02-16T00:19:54.971Z,9.63
2019-02-16T00:22:23.776Z,13.25
2019-02-16T00:24:52.343Z,8.00
2019-02-16T00:27:20.953Z,11.97
2019-02-16T00:29:49.839Z,9.58
2019-02-16T00:32:18.569Z,11.00
2019-02-16T00:34:47.135Z,11.33
2019-02-16T00:37:15.850Z,13.13
2019-02-16T00:39:44.355Z,11.12
2019-02-16T00:42:13.130Z,10.78
2019-02-16T00:44:41.857Z,10.10
2019-02-16T00:47:10.453Z,10.48
2019-02-16T00:49:39.067Z,11.85
2019-02-16T00:52:07.743Z,12.43
2019-02-16T00:54:36.358Z,12.07
2019-02-16T00:57:05.052Z,11.25
2019-02-16T00:59:33.688Z,12.20
2019-02-16T01:02:02.443Z,11.30
2019-02-16T01:04:31.020Z,11.57
2019-02-16T01:06:59.557Z,13.70
2019-02-16T01:09:28.122Z,11.83
2019-02-16T01:11:56.975Z,12.40
2019-02-16T01:14:25.509Z,11.07
2019-02-16T01:16:54.112Z,10.95
2019-02-16T01:19:22.794Z,11.40
2019-02-16T01:21:51.409Z,11.55
2019-02-16T01:24:20.015Z,9.70
2019-02-16T01:26:48.814Z,12.07
2019-02-16T01:29:17.530Z,10.47
2019-02-16T01:31:46.083Z,12.78
2019-02-16T01:34:14.722Z,11.93
2019-02-16T01:36:43.508Z,11.68
2019-02-16T01:39:12.172Z,14.40
2019-02-16T01:41:40.782Z,10.75
2019-02-16T01:44:09.439Z,10.03
2019-02-16T01:46:38.235Z,10.75
2019-02-16T01:49:07.271Z,9.28
2019-02-16T01:51:36.130Z,10.88
2019-02-16T01:54:04.974Z,11.05
2019-02-16T01:56:33.610Z,11.93
2019-02-16T01:59:02.219Z,11.07
2019-02-16T02:01:30.822Z,14.70
2019-02-16T02:03:59.379Z,10.28
2019-02-16T02:06:28.028Z,11.70
2019-02-16T02:08:56.672Z,13.25
2019-02-16T02:11:25.290Z,11.70
2019-02-16T02:13:54.021Z,12.28
2019-02-16T02:16:22.632Z,11.48
2019-02-16T02:18:51.224Z,10.32
2019-02-16T02:21:19.999Z,11.47
2019-02-16T02:23:48.690Z,11.20
2019-02-16T02:26:17.546Z,11.20
2019-02-16T02:28:46.086Z,12.78
2019-02-16T02:31:14.816Z,10.50
2019-02-16T02:33:43.849Z,10.98
2019-02-16T02:36:12.497Z,11.47
2019-02-16T02:38:41.045Z,15.18
2019-02-16T02:41:09.724Z,12.73
2019-02-16T02:43:38.377Z,10.45
2019-02-16T02:46:06.987Z,12.50
2019-02-16T02:48:35.536Z,10.82
2019-02-16T02:51:04.222Z,11.90
2019-02-16T02:53:32.834Z,11.08
2019-02-16T02:56:01.452Z,13.23
2019-02-16T02:58:30.140Z,10.03
2019-02-16T03:00:58.816Z,11.70
2019-02-16T03:03:27.474Z,11.48
2019-02-16T03:05:56.065Z,11.05
2019-02-16T03:08:24.838Z,16.12
2019-02-16T03:10:53.455Z,9.75
2019-02-16T03:13:22.093Z,11.68
2019-02-16T03:15:50.698Z,12.88
2019-02-16T03:18:19.302Z,11.12
2019-02-16T03:20:48.142Z,11.30
2019-02-16T03:23:19.168Z,9.70
2019-02-16T03:25:50.683Z,11.60
2019-02-16T03:28:31.083Z,14.07
2019-02-16T03:31:22.494Z,11.90
2019-02-16T03:33:56.614Z,12.50
2019-02-16T03:36:57.273Z,10.10
2019-02-16T03:39:26.093Z,9.80
2019-02-16T03:41:54.690Z,14.33
2019-02-16T03:44:23.329Z,12.37
2019-02-16T03:46:51.981Z,13.08
2019-02-16T03:49:20.622Z,11.57
2019-02-16T03:51:49.228Z,10.60
2019-02-16T03:54:17.945Z,12.45
2019-02-16T03:56:46.677Z,11.12
2019-02-16T03:59:15.212Z,13.70
2019-02-16T04:01:43.763Z,10.85
2019-02-16T04:04:12.476Z,11.97
2019-02-16T04:06:41.090Z,13.25
2019-02-16T04:09:09.718Z,14.98
2019-02-16T04:11:38.326Z,10.73
2019-02-16T04:14:06.914Z,10.00
2019-02-16T04:16:35.530Z,12.40
2019-02-16T04:19:04.177Z,10.18
2019-02-16T04:21:32.814Z,10.85
2019-02-16T04:24:01.363Z,10.55
2019-02-16T04:26:29.994Z,11.38
2019-02-16T04:28:58.615Z,13.93
2019-02-16T04:31:27.262Z,15.13
2019-02-16T04:33:55.976Z,9.68
2019-02-16T04:36:24.575Z,10.05
2019-02-16T04:38:53.151Z,11.85
2019-02-16T04:41:21.750Z,13.72
2019-02-16T04:43:50.358Z,11.20
2019-02-16T04:46:18.964Z,12.20
2019-02-16T04:48:47.623Z,12.37
2019-02-16T04:51:16.338Z,10.60
2019-02-16T04:53:45.028Z,10.67
2019-02-16T04:56:13.677Z,14.93
2019-02-16T04:58:42.289Z,14.35
2019-02-16T05:01:10.989Z,13.25
2019-02-16T05:03:39.575Z,13.05
2019-02-16T05:06:08.184Z,10.85
2019-02-16T05:08:36.750Z,10.98
2019-02-16T05:11:05.352Z,11.25
2019-02-16T05:13:34.103Z,13.45
2019-02-16T05:16:03.022Z,11.53
2019-02-16T05:18:31.591Z,13.17
2019-02-16T05:21:00.304Z,12.82
2019-02-16T05:23:28.951Z,11.63
2019-02-16T05:25:57.630Z,11.85
2019-02-16T05:28:26.263Z,11.38
2019-02-16T05:30:54.869Z,12.20
2019-02-16T05:33:23.628Z,12.30
2019-02-16T05:35:52.377Z,12.65
2019-02-16T05:38:20.968Z,13.25
2019-02-16T05:40:49.645Z,15.27
2019-02-16T05:43:18.335Z,12.40
2019-02-16T05:45:47.013Z,12.18
2019-02-16T05:48:15.712Z,11.80
2019-02-16T05:50:44.321Z,11.55
2019-02-16T05:53:13.036Z,13.70
2019-02-16T05:55:41.655Z,13.13
2019-02-16T05:58:10.264Z,11.30
2019-02-16T06:00:38.795Z,14.15
2019-02-16T06:03:07.894Z,11.65
2019-02-16T06:05:36.591Z,11.83
2019-02-16T06:08:05.387Z,14.85
2019-02-16T06:10:34.215Z,12.18
2019-02-16T06:13:02.917Z,20.23
2019-02-16T06:15:31.550Z,13.55
2019-02-16T06:18:00.218Z,12.37
2019-02-16T06:20:28.789Z,11.48
2019-02-16T06:23:03.867Z,12.05
2019-02-16T06:25:27.689Z,12.98
2019-02-16T06:27:56.429Z,14.07
2019-02-16T06:30:24.971Z,12.88
2019-02-16T06:32:53.589Z,15.32
2019-02-16T06:35:26.557Z,12.50
2019-02-16T06:37:55.192Z,12.27
2019-02-16T06:40:23.803Z,11.88
2019-02-16T06:42:52.436Z,14.35
2019-02-16T06:45:21.043Z,12.37
2019-02-16T06:47:49.659Z,12.20
2019-02-16T06:50:18.278Z,13.20
2019-02-16T06:52:47.231Z,12.37
2019-02-16T06:55:15.942Z,13.18
2019-02-16T06:57:46.142Z,12.70
2019-02-16T07:00:16.332Z,10.55
2019-02-16T07:02:44.947Z,13.05
2019-02-16T07:05:13.681Z,11.63
2019-02-16T07:07:42.415Z,12.70
2019-02-16T07:10:11.035Z,13.60
2019-02-16T07:12:39.608Z,12.23
2019-02-16T07:15:08.392Z,11.22
2019-02-16T07:17:41.563Z,12.73
2019-02-16T07:20:10.456Z,11.80
2019-02-16T07:22:39.069Z,10.63
2019-02-16T07:25:08.616Z,13.32
2019-02-16T07:27:37.236Z,12.13
2019-02-16T07:30:08.613Z,10.28
2019-02-16T07:32:37.229Z,15.23
2019-02-16T07:35:07.228Z,12.18
2019-02-16T07:37:35.862Z,12.45
2019-02-16T07:40:06.002Z,9.90
2019-02-16T07:42:48.539Z,11.90
2019-02-16T07:45:19.545Z,14.45
2019-02-16T07:47:49.996Z,12.98
2019-02-16T07:50:23.119Z,10.95
2019-02-16T07:52:56.316Z,9.78
2019-02-16T07:55:26.496Z,11.60
2019-02-16T07:57:56.752Z,14.03
2019-02-16T08:00:26.974Z,12.18
2019-02-16T08:02:59.991Z,10.90
2019-02-16T08:05:48.535Z,11.95
2019-02-16T08:08:18.818Z,11.05
2019-02-16T08:10:49.160Z,14.13
2019-02-16T08:13:35.792Z,12.93
2019-02-16T08:16:21.143Z,12.18
2019-02-16T08:18:54.161Z,13.57
2019-02-16T08:21:30.346Z,12.28
2019-02-16T08:24:15.977Z,12.05
2019-02-16T08:27:04.389Z,13.17
2019-02-16T08:29:34.684Z,11.30
2019-02-16T08:32:08.348Z,12.68
2019-02-16T08:34:47.567Z,11.13
2019-02-16T08:37:23.808Z,14.28
2019-02-16T08:40:09.070Z,12.15
2019-02-16T08:42:56.091Z,12.93
2019-02-16T08:45:26.694Z,15.10
2019-02-16T08:47:59.956Z,13.72
2019-02-16T08:50:35.997Z,11.80
2019-02-16T08:53:06.279Z,13.70
2019-02-16T08:55:52.855Z,12.05
2019-02-16T08:58:39.246Z,14.07
2019-02-16T09:01:20.133Z,11.63
2019-02-16T09:03:53.280Z,13.28
2019-02-16T09:06:23.678Z,11.65
2019-02-16T09:08:54.112Z,11.43
2019-02-16T09:11:33.257Z,12.33
2019-02-16T09:14:06.549Z,12.68
2019-02-16T09:16:39.868Z,11.20
2019-02-16T09:19:26.594Z,12.67
2019-02-16T09:22:02.542Z,12.95
2019-02-16T09:24:32.773Z,13.95
2019-02-16T09:27:10.623Z,15.48
2019-02-16T09:29:44.777Z,11.15
2019-02-16T09:32:15.310Z,11.33
2019-02-16T09:34:51.745Z,13.98
2019-02-16T09:37:22.233Z,11.17
2019-02-16T09:39:52.493Z,11.28
2019-02-16T09:42:39.205Z,16.05
2019-02-16T09:45:26.427Z,12.20
2019-02-16T09:47:56.678Z,13.62
2019-02-16T09:50:28.230Z,12.68
2019-02-16T09:53:07.640Z,11.93
2019-02-16T09:55:54.418Z,12.58
2019-02-16T09:58:27.395Z,14.87
2019-02-16T10:00:58.164Z,14.68
2019-02-16T10:03:47.140Z,14.30
2019-02-16T10:06:20.455Z,14.33
2019-02-16T10:08:50.952Z,18.40
2019-02-16T10:11:39.536Z,18.00
2019-02-16T10:14:12.493Z,18.17
2019-02-16T10:16:42.796Z,16.65
2019-02-16T10:19:25.038Z,20.37
2019-02-16T10:21:58.117Z,20.35
2019-02-16T10:24:34.173Z,16.85
2019-02-16T10:27:07.052Z,20.02
2019-02-16T10:29:53.516Z,20.43
2019-02-16T10:32:23.764Z,20.32
2019-02-16T10:34:56.547Z,21.02
2019-02-16T10:37:26.805Z,18.30
2019-02-16T10:40:02.967Z,20.12
2019-02-16T10:42:35.931Z,24.12
2019-02-16T10:45:09.726Z,20.45
2019-02-16T10:47:40.116Z,19.73
2019-02-16T10:50:13.400Z,18.27
2019-02-16T10:52:52.467Z,18.47
2019-02-16T10:55:22.770Z,20.70
2019-02-16T10:57:53.027Z,19.98
2019-02-16T11:00:35.647Z,21.25
2019-02-16T11:03:11.851Z,20.23
2019-02-16T11:05:48.301Z,20.57
2019-02-16T11:08:19.062Z,19.35
2019-02-16T11:10:55.293Z,18.90
2019-02-16T11:13:31.536Z,21.30
2019-02-16T11:16:04.781Z,21.12
2019-02-16T11:18:47.358Z,20.95
2019-02-16T11:21:23.544Z,22.73
2019-02-16T11:24:06.098Z,20.33
2019-02-16T11:26:52.820Z,22.85
2019-02-16T11:29:23.116Z,21.45
2019-02-16T11:31:53.545Z,22.80
2019-02-16T11:34:26.616Z,21.68
2019-02-16T11:37:03.466Z,24.55
2019-02-16T11:39:39.685Z,26.37
2019-02-16T11:42:28.557Z,25.55
2019-02-16T11:44:58.813Z,22.27
2019-02-16T11:47:32.463Z,24.47
2019-02-16T11:50:19.078Z,24.43
2019-02-16T11:53:06.061Z,23.23
2019-02-16T11:55:39.388Z,24.92
2019-02-16T11:58:09.638Z,23.00
2019-02-16T12:00:45.871Z,23.15
2019-02-16T12:03:16.605Z,23.63
2019-02-16T12:05:46.896Z,24.20
2019-02-16T12:08:17.183Z,25.27
2019-02-16T12:10:56.798Z,26.73
2019-02-16T12:13:32.882Z,20.43
2019-02-16T12:16:15.106Z,25.95
2019-02-16T12:19:01.756Z,24.77
2019-02-16T12:21:38.710Z,24.47
2019-02-16T12:24:08.902Z,21.02
2019-02-16T12:26:39.278Z,20.90
2019-02-16T12:29:09.482Z,21.12
2019-02-16T12:31:48.646Z,25.95
2019-02-16T12:34:30.734Z,20.57
2019-02-16T12:37:06.603Z,22.35
2019-02-16T12:39:55.467Z,22.05
2019-02-16T12:42:28.321Z,22.22
2019-02-16T12:45:07.738Z,20.37
2019-02-16T12:47:50.146Z,23.10
2019-02-16T12:50:20.402Z,23.62
2019-02-16T12:52:53.457Z,22.48
2019-02-16T12:55:35.726Z,25.57
2019-02-16T12:58:06.077Z,21.17
2019-02-16T13:00:41.908Z,20.62
2019-02-16T13:03:12.540Z,23.30
2019-02-16T13:05:59.150Z,21.00
2019-02-16T13:08:32.296Z,20.95
2019-02-16T13:11:05.423Z,22.58
2019-02-16T13:13:35.677Z,22.17
2019-02-16T13:16:08.766Z,21.55
2019-02-16T13:18:44.764Z,21.05
2019-02-16T13:21:15.014Z,20.46
2019-02-16T13:23:45.272Z,22.93
2019-02-16T13:26:18.561Z,22.10
2019-02-16T13:28:51.820Z,23.47
2019-02-16T13:31:28.557Z,22.30
2019-02-16T13:34:14.896Z,24.52
2019-02-16T13:36:57.543Z,19.25
2019-02-16T13:39:27.761Z,21.17
2019-02-16T13:41:58.054Z,22.45
2019-02-16T13:44:37.598Z,21.73
2019-02-16T13:47:07.882Z,22.10
2019-02-16T13:49:38.778Z,21.62
2019-02-16T13:52:24.498Z,20.68
2019-02-16T13:55:14.185Z,22.20
2019-02-16T13:57:50.449Z,21.60
2019-02-16T14:00:35.747Z,23.97
2019-02-16T14:03:06.045Z,21.45
2019-02-16T14:05:45.652Z,23.10
2019-02-16T14:08:21.918Z,23.55
2019-02-16T14:10:52.179Z,23.27
2019-02-16T14:13:31.368Z,22.67
2019-02-16T14:16:19.948Z,24.25
2019-02-16T14:18:48.530Z,23.80
2019-02-16T14:21:17.166Z,21.25
2019-02-16T14:23:45.843Z,25.70
2019-02-16T14:26:14.462Z,23.53
2019-02-16T14:28:43.036Z,23.77
2019-02-16T14:31:12.968Z,24.35
2019-02-16T14:33:41.578Z,26.10
2019-02-16T14:36:10.300Z,29.13
2019-02-16T14:38:40.723Z,22.98
2019-02-16T14:41:09.420Z,26.33
2019-02-16T14:43:38.095Z,26.12
2019-02-16T14:46:06.987Z,27.65
2019-02-16T14:48:35.605Z,25.65
2019-02-16T14:51:04.192Z,24.77
2019-02-16T14:53:32.777Z,25.57
2019-02-16T14:56:01.396Z,22.90
2019-02-16T14:58:30.112Z,22.43
2019-02-16T15:00:59.109Z,23.75
2019-02-16T15:03:27.760Z,23.77
2019-02-16T15:05:56.454Z,27.45
2019-02-16T15:08:25.398Z,25.77
2019-02-16T15:10:54.254Z,25.23
2019-02-16T15:13:22.827Z,24.87
2019-02-16T15:15:51.453Z,29.18
2019-02-16T15:18:19.942Z,28.47
2019-02-16T15:20:48.621Z,31.27
2019-02-16T15:23:17.402Z,25.83
2019-02-16T15:25:46.026Z,26.25
2019-02-16T15:28:14.745Z,29.40
2019-02-16T15:30:43.329Z,29.72
2019-02-16T15:33:11.872Z,30.88
2019-02-16T15:35:40.867Z,28.92
2019-02-16T15:38:09.527Z,26.33
2019-02-16T15:40:38.075Z,27.58
2019-02-16T15:43:06.689Z,26.75
2019-02-16T15:45:35.377Z,30.52
2019-02-16T15:48:04.816Z,29.20
2019-02-16T15:50:33.501Z,31.35
2019-02-16T15:53:02.222Z,31.27
2019-02-16T15:55:30.872Z,26.70
2019-02-16T15:57:59.541Z,33.25
2019-02-16T16:00:29.068Z,27.30
2019-02-16T16:02:59.624Z,30.53
2019-02-16T16:05:28.251Z,29.23
2019-02-16T16:08:10.850Z,28.20
2019-02-16T16:10:41.108Z,35.63
2019-02-16T16:13:14.573Z,30.72
2019-02-16T16:15:44.975Z,32.00
2019-02-16T16:18:33.416Z,30.65
2019-02-16T16:21:15.649Z,34.60
2019-02-16T16:24:02.137Z,32.30
2019-02-16T16:26:48.958Z,38.25
2019-02-16T16:29:28.136Z,42.97
2019-02-16T16:32:04.261Z,35.73
2019-02-16T16:34:43.737Z,36.75
2019-02-16T16:37:30.099Z,33.53
2019-02-16T16:40:00.389Z,37.00
2019-02-16T16:42:42.541Z,33.07
2019-02-16T16:45:24.126Z,37.73
2019-02-16T16:48:06.337Z,33.18
2019-02-16T16:50:36.959Z,33.63
2019-02-16T16:53:07.228Z,43.28
2019-02-16T16:55:43.291Z,79.03
2019-02-16T16:58:29.511Z,89.30
2019-02-16T17:01:17.697Z,95.20
2019-02-16T17:03:56.994Z,94.95
2019-02-16T17:06:35.963Z,89.92
2019-02-16T17:09:08.054Z,75.30
2019-02-16T17:11:44.250Z,65.35
2019-02-16T17:14:17.033Z,72.10
2019-02-16T17:16:53.363Z,69.47
2019-02-16T17:19:29.632Z,51.60
2019-02-16T17:22:12.479Z,50.10
2019-02-16T17:24:42.694Z,49.08
2019-02-16T17:27:15.995Z,49.13
2019-02-16T17:29:46.268Z,52.07
2019-02-16T17:32:16.617Z,49.65
2019-02-16T17:34:49.731Z,43.70
2019-02-16T17:37:22.717Z,43.63
2019-02-16T17:39:53.211Z,44.25
2019-02-16T17:42:39.482Z,41.63
2019-02-16T17:45:17.230Z,46.83
2019-02-16T17:47:50.564Z,43.73
2019-02-16T17:50:39.229Z,44.45
2019-02-16T17:53:27.476Z,49.65
2019-02-16T17:56:03.593Z,53.52
2019-02-16T17:58:36.310Z,44.20
2019-02-16T18:01:06.627Z,41.15
2019-02-16T18:03:45.734Z,53.55
2019-02-16T18:06:21.861Z,56.42
2019-02-16T18:08:58.250Z,47.73
2019-02-16T18:11:28.851Z,49.50
2019-02-16T18:14:07.834Z,52.78
2019-02-16T18:16:56.438Z,53.02
2019-02-16T18:19:26.688Z,51.77
2019-02-16T18:21:57.283Z,54.40
2019-02-16T18:24:44.150Z,52.50
2019-02-16T18:27:14.388Z,56.50
2019-02-16T18:29:59.693Z,53.40
2019-02-16T18:32:31.558Z,48.63
2019-02-16T18:35:08.404Z,43.85
2019-02-16T18:37:51.045Z,46.15
2019-02-16T18:40:30.463Z,47.45
2019-02-16T18:43:00.841Z,51.05
2019-02-16T18:45:40.118Z,50.92
2019-02-16T18:48:13.055Z,49.35
2019-02-16T18:50:43.337Z,44.67
2019-02-16T18:53:22.341Z,46.20
2019-02-16T18:55:52.580Z,48.05
2019-02-16T18:58:25.687Z,50.33
2019-02-16T19:00:56.140Z,52.80
2019-02-16T19:03:35.214Z,50.58
2019-02-16T19:06:05.526Z,53.58
2019-02-16T19:08:35.966Z,45.67
2019-02-16T19:11:22.534Z,46.88
2019-02-16T19:13:58.433Z,45.88
2019-02-16T19:16:37.592Z,51.90
2019-02-16T19:19:13.816Z,51.08
2019-02-16T19:21:47.130Z,52.53
2019-02-16T19:24:17.780Z,49.83
2019-02-16T19:26:48.072Z,50.52
2019-02-16T19:29:27.701Z,51.48
2019-02-16T19:31:57.996Z,56.98
2019-02-16T19:34:28.461Z,47.83
2019-02-16T19:37:07.829Z,50.30
2019-02-16T19:39:38.081Z,54.95
2019-02-16T19:42:08.377Z,53.30
2019-02-16T19:44:38.632Z,52.67
2019-02-16T19:47:11.839Z,48.20
2019-02-16T19:49:57.173Z,54.40
2019-02-16T19:52:27.569Z,58.75
2019-02-16T19:54:57.801Z,56.17
2019-02-16T19:57:31.005Z,55.88
2019-02-16T20:00:17.957Z,55.50
2019-02-16T20:03:03.429Z,51.45
2019-02-16T20:05:33.685Z,55.58
2019-02-16T20:08:09.860Z,55.20
2019-02-16T20:10:56.491Z,50.45
2019-02-16T20:13:29.743Z,54.93
2019-02-16T20:16:02.970Z,47.93
2019-02-16T20:18:51.700Z,57.03
2019-02-16T20:21:40.222Z,55.38
2019-02-16T20:24:13.239Z,48.40
2019-02-16T20:26:43.851Z,53.58
2019-02-16T20:29:14.141Z,54.27
2019-02-16T20:32:00.833Z,50.40
2019-02-16T20:34:31.111Z,49.33
2019-02-16T20:37:07.391Z,49.88
2019-02-16T20:39:43.819Z,53.70
2019-02-16T20:42:14.105Z,54.48
2019-02-16T20:44:47.062Z,51.35
2019-02-16T20:47:26.527Z,49.75
2019-02-16T20:49:59.586Z,53.13
2019-02-16T20:52:32.908Z,54.13
2019-02-16T20:55:03.094Z,56.15
2019-02-16T20:57:33.352Z,49.70
2019-02-16T21:00:06.247Z,53.50
2019-02-16T21:02:36.492Z,52.78
2019-02-16T21:05:25.390Z,57.40
2019-02-16T21:07:55.744Z,49.90
2019-02-16T21:10:26.021Z,55.80
2019-02-16T21:12:56.270Z,50.40
2019-02-16T21:15:26.576Z,49.42
2019-02-16T21:17:57.544Z,49.80
2019-02-16T21:20:44.233Z,54.97
2019-02-16T21:23:30.937Z,53.65
2019-02-16T21:26:04.114Z,51.53
2019-02-16T21:28:37.248Z,53.02
2019-02-16T21:31:10.262Z,54.23
2019-02-16T21:33:46.295Z,56.48
2019-02-16T21:36:16.580Z,61.97
2019-02-16T21:39:03.697Z,54.57
2019-02-16T21:41:49.248Z,47.80
2019-02-16T21:44:22.485Z,52.17
2019-02-16T21:47:02.833Z,51.00
2019-02-16T21:49:33.070Z,47.03
2019-02-16T21:52:03.391Z,58.17
2019-02-16T21:54:42.546Z,53.33
2019-02-16T21:57:24.787Z,49.90
2019-02-16T22:00:13.026Z,53.85
2019-02-16T22:02:49.156Z,60.30
2019-02-16T22:05:19.552Z,61.88
2019-02-16T22:07:59.256Z,57.17
2019-02-16T22:10:29.752Z,61.35
2019-02-16T22:13:02.568Z,63.05
2019-02-16T22:15:31.424Z,58.58
2019-02-16T22:18:00.044Z,58.83
2019-02-16T22:20:28.694Z,60.23
2019-02-16T22:22:57.346Z,62.25
2019-02-16T22:25:26.041Z,55.55
2019-02-16T22:27:54.682Z,54.38
2019-02-16T22:30:23.414Z,59.05
2019-02-16T22:32:52.084Z,52.57
2019-02-16T22:35:20.768Z,55.78
2019-02-16T22:37:49.494Z,50.45
2019-02-16T22:40:18.280Z,49.75
2019-02-16T22:42:46.930Z,49.75
2019-02-16T22:45:15.579Z,51.70
2019-02-16T22:47:44.196Z,52.83
2019-02-16T22:50:12.883Z,56.33
2019-02-16T22:52:42.118Z,51.98
2019-02-16T22:55:10.846Z,53.52
2019-02-16T22:57:39.497Z,50.63
2019-02-16T23:00:18.764Z,52.98
2019-02-16T23:02:47.680Z,50.63
2019-02-16T23:05:16.386Z,49.38
2019-02-16T23:07:44.993Z,52.95
2019-02-16T23:10:13.942Z,54.50
2019-02-16T23:12:42.559Z,55.17
2019-02-16T23:15:12.333Z,54.18
2019-02-16T23:17:41.061Z,56.02
2019-02-16T23:20:11.565Z,53.30
2019-02-16T23:22:40.815Z,46.60
2019-02-16T23:25:09.635Z,46.53
2019-02-16T23:27:38.384Z,51.77
2019-02-16T23:30:11.753Z,60.20
2019-02-16T23:32:40.610Z,51.90
2019-02-16T23:35:09.744Z,55.52
2019-02-16T23:37:38.379Z,52.33
2019-02-16T23:40:08.500Z,50.60
2019-02-16T23:42:37.294Z,58.55
2019-02-16T23:45:08.611Z,50.52
2019-02-16T23:47:37.237Z,52.00
2019-02-16T23:50:08.653Z,50.80
2019-02-16T23:52:37.300Z,52.35
2019-02-16T23:55:08.805Z,47.70
2019-02-16T23:57:37.475Z,45.93
